Time;durP1;ratioP1;P1;durP2;ratioP2;P2;SDS_P1;SDS_P2;PMS_P1;PMS_P2;Temp;Humidity;BMP_temperature;BMP_pressure;BME280_temperature;BME280_humidity;BME280_pressure;Samples;Min_cycle;Max_cycle;Signal;HPM_P1;HPM_P2
2023/03/30 00:00:37;;;;;;;22.35;15.25;;;11.00;99.90;;;;;;4954176;28;20057;-85
2023/03/30 00:03:03;;;;;;;22.90;15.73;;;11.00;99.90;;;;;;4944091;28;20043;-85
2023/03/30 00:05:30;;;;;;;20.15;14.80;;;11.10;99.90;;;;;;4961733;28;20066;-85
2023/03/30 00:07:56;;;;;;;19.88;14.02;;;11.10;99.90;;;;;;4949399;28;20051;-85
2023/03/30 00:10:22;;;;;;;23.00;14.43;;;11.40;99.90;;;;;;4954159;28;20046;-85
2023/03/30 00:12:49;;;;;;;18.98;13.18;;;11.10;99.90;;;;;;4948229;28;20723;-85
2023/03/30 00:15:17;;;;;;;17.50;13.52;;;11.10;99.90;;;;;;4951248;28;20039;-85
2023/03/30 00:17:44;;;;;;;19.83;12.55;;;11.10;99.90;;;;;;4952255;28;20070;-84
2023/03/30 00:20:12;;;;;;;19.55;13.13;;;11.10;99.90;;;;;;4952076;28;20066;-85
2023/03/30 00:22:41;;;;;;;16.95;12.82;;;11.20;99.90;;;;;;4948881;28;20252;-85
2023/03/30 00:25:10;;;;;;;18.52;13.65;;;11.20;99.90;;;;;;4957313;28;20051;-84
2023/03/30 00:27:36;;;;;;;20.10;13.20;;;11.20;99.90;;;;;;4944047;28;20047;-85
2023/03/30 00:30:04;;;;;;;22.08;13.20;;;11.20;99.90;;;;;;4961762;28;20074;-84
2023/03/30 00:32:29;;;;;;;18.77;12.10;;;11.20;99.90;;;;;;4952028;28;20551;-85
2023/03/30 00:34:55;;;;;;;16.80;11.95;;;11.30;99.90;;;;;;4946352;28;20075;-85
2023/03/30 00:37:22;;;;;;;17.38;11.77;;;11.30;99.90;;;;;;4948711;28;20038;-85
2023/03/30 00:39:47;;;;;;;18.00;11.07;;;11.30;99.90;;;;;;4964624;28;20102;-85
2023/03/30 00:42:16;;;;;;;17.88;11.50;;;11.30;99.90;;;;;;4945915;28;20043;-84
2023/03/30 00:45:06;;;;;;;16.10;11.02;;;11.30;99.90;;;;;;4945700;28;20062;-84
2023/03/30 00:47:34;;;;;;;17.20;10.23;;;11.30;99.90;;;;;;4950300;28;20097;-84
2023/03/30 00:50:01;;;;;;;16.58;11.02;;;11.40;99.90;;;;;;4944658;28;20110;-84
2023/03/30 00:52:26;;;;;;;17.65;11.68;;;11.30;99.90;;;;;;4956951;28;20046;-85
2023/03/30 00:54:55;;;;;;;15.20;10.55;;;11.40;99.90;;;;;;4950625;28;20046;-85
2023/03/30 00:57:23;;;;;;;17.40;11.70;;;11.40;99.90;;;;;;4944602;28;20066;-83
2023/03/30 00:59:51;;;;;;;17.58;10.43;;;11.40;99.90;;;;;;4965762;28;20070;-84
2023/03/30 01:02:20;;;;;;;14.88;10.55;;;11.40;99.90;;;;;;4940098;28;20047;-83
2023/03/30 01:04:47;;;;;;;19.38;12.10;;;11.40;99.90;;;;;;4955179;28;20041;-83
2023/03/30 01:07:14;;;;;;;16.38;10.75;;;11.30;99.90;;;;;;4954913;28;20098;-84
2023/03/30 01:09:42;;;;;;;19.27;11.32;;;11.30;99.90;;;;;;4943651;28;20058;-84
2023/03/30 01:12:09;;;;;;;16.17;9.70;;;11.30;99.90;;;;;;4947261;28;20082;-84
2023/03/30 01:14:35;;;;;;;15.32;10.48;;;11.30;99.90;;;;;;4948596;28;20412;-83
2023/03/30 01:17:35;;;;;;;17.30;10.10;;;11.30;99.90;;;;;;4947602;28;20570;-84
2023/03/30 01:20:39;;;;;;;13.98;8.90;;;11.30;99.90;;;;;;4962123;28;20125;-83
2023/03/30 01:23:38;;;;;;;15.35;9.95;;;11.30;99.90;;;;;;4952277;28;20066;-83
2023/03/30 01:26:29;;;;;;;18.02;9.10;;;11.30;99.90;;;;;;4956593;28;20154;-82
2023/03/30 01:29:01;;;;;;;16.48;9.40;;;11.30;99.90;;;;;;4961086;28;20047;-84
2023/03/30 01:31:45;;;;;;;15.05;8.73;;;11.30;99.90;;;;;;4954899;28;20026;-84
2023/03/30 01:34:19;;;;;;;12.68;7.65;;;11.30;99.90;;;;;;4968244;28;20202;-84
2023/03/30 01:36:45;;;;;;;15.10;8.00;;;11.20;99.90;;;;;;4949838;28;20117;-84
2023/03/30 01:39:20;;;;;;;13.55;7.05;;;11.30;99.90;;;;;;4953467;28;20103;-85
2023/03/30 01:42:02;;;;;;;13.43;6.95;;;11.30;99.90;;;;;;4944093;28;20055;-83
2023/03/30 01:44:50;;;;;;;12.77;6.82;;;11.30;99.90;;;;;;4959675;28;20097;-84
2023/03/30 01:47:29;;;;;;;11.93;6.55;;;11.30;99.90;;;;;;4972052;28;20061;-83
2023/03/30 01:50:26;;;;;;;8.90;6.25;;;11.40;99.90;;;;;;4954026;28;20047;-83
2023/03/30 01:52:57;;;;;;;14.45;6.22;;;11.40;99.90;;;;;;4950815;28;20043;-84
2023/03/30 01:55:36;;;;;;;11.25;5.93;;;11.40;99.90;;;;;;4954045;28;20053;-84
2023/03/30 01:58:06;;;;;;;10.43;6.25;;;11.50;99.90;;;;;;4958062;28;20055;-84
2023/03/30 02:00:36;;;;;;;11.85;5.88;;;11.50;99.90;;;;;;4965809;28;20043;-84
2023/03/30 02:03:04;;;;;;;10.73;6.03;;;11.50;99.90;;;;;;4955322;28;20102;-83
2023/03/30 02:05:31;;;;;;;10.88;5.97;;;11.50;99.90;;;;;;4958813;28;20394;-84
2023/03/30 02:08:03;;;;;;;13.73;6.03;;;11.50;99.90;;;;;;4944155;28;20043;-84
2023/03/30 02:10:32;;;;;;;9.52;5.38;;;11.50;99.90;;;;;;4967753;28;20051;-84
2023/03/30 02:12:59;;;;;;;11.13;5.93;;;11.50;99.90;;;;;;4962171;28;20058;-84
2023/03/30 02:15:32;;;;;;;11.23;6.28;;;11.50;99.90;;;;;;4945642;28;20450;-84
2023/03/30 02:17:58;;;;;;;11.20;6.00;;;11.50;99.90;;;;;;4945956;28;20126;-84
2023/03/30 02:20:23;;;;;;;12.85;5.72;;;11.50;99.90;;;;;;4948875;28;20106;-84
2023/03/30 02:22:49;;;;;;;10.27;5.75;;;11.60;99.90;;;;;;4948766;28;20043;-83
2023/03/30 02:25:16;;;;;;;9.55;5.60;;;11.50;99.90;;;;;;4946133;28;20043;-84
2023/03/30 02:27:42;;;;;;;9.93;5.90;;;11.50;99.90;;;;;;4951705;28;20126;-83
2023/03/30 02:30:08;;;;;;;11.57;5.85;;;11.50;99.90;;;;;;4947209;28;20047;-84
2023/03/30 02:32:46;;;;;;;12.38;5.97;;;11.50;99.90;;;;;;4952966;28;20042;-84
2023/03/30 02:35:37;;;;;;;10.77;5.35;;;11.50;99.90;;;;;;4947081;28;20106;-84
2023/03/30 02:38:12;;;;;;;14.55;5.82;;;11.50;99.90;;;;;;4941847;28;20051;-84
2023/03/30 02:41:07;;;;;;;9.82;5.65;;;11.50;99.90;;;;;;4950880;28;20532;-84
2023/03/30 02:43:37;;;;;;;9.40;6.00;;;11.50;99.90;;;;;;4947334;28;20603;-84
2023/03/30 02:46:18;;;;;;;10.57;5.63;;;11.40;99.90;;;;;;4951952;28;20081;-83
2023/03/30 02:48:59;;;;;;;12.45;5.65;;;11.50;99.90;;;;;;4952094;28;20142;-83
2023/03/30 02:52:07;;;;;;;11.88;5.75;;;11.50;99.90;;;;;;4950997;28;20046;-83
2023/03/30 02:54:54;;;;;;;9.48;5.00;;;11.50;99.90;;;;;;4919231;29;21612;-83
2023/03/30 02:57:34;;;;;;;11.50;5.13;;;11.50;99.90;;;;;;4931430;29;20058;-83
2023/03/30 03:00:07;;;;;;;10.27;5.38;;;11.50;99.90;;;;;;4907362;29;20047;-84
2023/03/30 03:02:39;;;;;;;12.40;5.28;;;11.50;99.90;;;;;;4924076;29;20055;-84
2023/03/30 03:05:10;;;;;;;13.63;5.43;;;11.50;99.90;;;;;;4914140;29;20076;-84
2023/03/30 03:07:37;;;;;;;11.73;5.10;;;11.50;99.90;;;;;;4932248;28;20565;-83
2023/03/30 03:10:05;;;;;;;9.75;4.50;;;11.80;99.90;;;;;;4919504;29;20063;-84
2023/03/30 03:12:31;;;;;;;9.18;5.45;;;11.50;99.90;;;;;;4926712;29;20047;-84
2023/03/30 03:14:57;;;;;;;12.50;5.38;;;11.50;99.90;;;;;;4918830;29;20070;-83
2023/03/30 03:17:23;;;;;;;13.18;5.53;;;11.50;99.90;;;;;;4926785;28;20044;-83
2023/03/30 03:19:49;;;;;;;13.73;5.18;;;11.50;99.90;;;;;;4910431;29;20054;-83
2023/03/30 03:22:15;;;;;;;10.45;5.13;;;11.50;99.90;;;;;;4926027;28;20044;-83
2023/03/30 03:24:41;;;;;;;12.32;5.18;;;11.50;99.90;;;;;;4923750;29;20214;-83
2023/03/30 03:27:07;;;;;;;15.50;5.22;;;11.50;99.90;;;;;;4911445;29;20090;-83
2023/03/30 03:29:33;;;;;;;10.65;5.28;;;11.50;99.90;;;;;;4960326;28;20055;-84
2023/03/30 03:31:59;;;;;;;13.70;5.43;;;11.50;99.90;;;;;;4950765;28;20047;-84
2023/03/30 03:34:25;;;;;;;7.75;4.45;;;11.50;99.90;;;;;;4953265;28;20362;-84
2023/03/30 03:36:53;;;;;;;8.52;4.70;;;11.50;99.90;;;;;;4955843;28;20038;-84
2023/03/30 03:39:19;;;;;;;12.13;4.68;;;11.40;99.90;;;;;;4949843;28;20269;-83
2023/03/30 03:41:45;;;;;;;11.43;5.03;;;11.40;99.90;;;;;;4950956;28;20078;-83
2023/03/30 03:44:10;;;;;;;11.52;5.38;;;11.40;99.90;;;;;;4948830;28;20058;-83
2023/03/30 03:46:36;;;;;;;9.02;5.05;;;11.40;99.90;;;;;;4950848;28;20050;-83
2023/03/30 03:49:01;;;;;;;12.60;5.22;;;11.40;99.90;;;;;;4953360;28;20064;-83
2023/03/30 03:51:28;;;;;;;9.90;5.32;;;11.30;99.90;;;;;;4949972;28;20062;-82
2023/03/30 03:53:54;;;;;;;10.80;4.75;;;11.30;99.90;;;;;;4953969;28;20412;-82
2023/03/30 03:56:20;;;;;;;10.30;4.35;;;11.40;99.90;;;;;;4964790;28;20050;-83
2023/03/30 03:58:46;;;;;;;11.88;4.35;;;11.40;99.90;;;;;;4963617;28;20051;-84
2023/03/30 04:01:13;;;;;;;10.43;4.72;;;11.40;99.90;;;;;;4951134;28;20055;-84
2023/03/30 04:03:40;;;;;;;10.52;4.65;;;11.40;99.90;;;;;;4947936;28;20130;-84
2023/03/30 04:06:06;;;;;;;11.05;4.28;;;11.50;99.90;;;;;;4949389;28;20058;-84
2023/03/30 04:08:32;;;;;;;11.50;4.40;;;11.40;99.90;;;;;;4951784;28;20053;-83
2023/03/30 04:11:10;;;;;;;8.52;4.13;;;11.50;99.90;;;;;;4959843;28;20045;-84
2023/03/30 04:13:37;;;;;;;10.88;4.30;;;11.40;99.90;;;;;;4958777;28;20163;-84
2023/03/30 04:16:04;;;;;;;7.85;4.28;;;11.60;99.90;;;;;;4945289;28;20077;-84
2023/03/30 04:18:32;;;;;;;9.48;4.00;;;11.50;99.90;;;;;;4945189;28;20039;-83
2023/03/30 04:21:04;;;;;;;9.70;4.20;;;11.50;99.90;;;;;;4945241;28;20493;-84
2023/03/30 04:23:32;;;;;;;7.93;3.53;;;11.50;99.90;;;;;;4942893;28;20784;-84
2023/03/30 04:26:06;;;;;;;8.35;3.45;;;11.50;99.90;;;;;;4946081;28;20047;-84
2023/03/30 04:28:33;;;;;;;13.53;4.20;;;11.50;99.90;;;;;;4942630;28;20039;-84
2023/03/30 04:31:04;;;;;;;12.18;3.60;;;11.50;99.90;;;;;;4944657;28;20142;-84
2023/03/30 04:33:33;;;;;;;8.27;3.60;;;11.40;99.90;;;;;;4946248;28;20043;-84
2023/03/30 04:36:00;;;;;;;8.00;3.70;;;11.50;99.90;;;;;;4948524;28;20042;-83
2023/03/30 04:38:26;;;;;;;8.32;3.05;;;11.50;99.90;;;;;;4950662;28;20086;-83
2023/03/30 04:40:53;;;;;;;10.15;3.35;;;11.50;99.90;;;;;;4943214;28;20039;-84
2023/03/30 04:43:21;;;;;;;8.80;3.50;;;11.50;99.90;;;;;;4948244;28;20035;-82
2023/03/30 04:45:49;;;;;;;11.70;3.78;;;11.50;99.90;;;;;;4960400;28;20058;-82
2023/03/30 04:48:15;;;;;;;9.98;3.72;;;11.50;99.90;;;;;;4948247;28;20047;-82
2023/03/30 04:50:42;;;;;;;10.57;3.83;;;11.50;99.90;;;;;;4956416;28;22010;-83
2023/03/30 04:53:08;;;;;;;8.13;3.10;;;11.50;99.90;;;;;;4927982;28;20047;-83
2023/03/30 04:55:35;;;;;;;7.72;3.40;;;11.50;99.90;;;;;;4937670;28;20085;-83
2023/03/30 04:58:01;;;;;;;8.00;3.28;;;11.50;99.90;;;;;;4946587;28;20043;-83
2023/03/30 05:00:27;;;;;;;7.40;3.55;;;11.60;99.90;;;;;;4950601;28;20098;-82
2023/03/30 05:02:53;;;;;;;9.88;3.35;;;11.60;99.90;;;;;;4940399;28;20034;-82
2023/03/30 05:05:19;;;;;;;8.68;3.08;;;11.60;99.90;;;;;;4947974;28;20596;-82
2023/03/30 05:07:45;;;;;;;7.57;3.83;;;11.70;99.90;;;;;;4966250;28;20049;-82
2023/03/30 05:10:11;;;;;;;10.65;2.88;;;11.60;99.90;;;;;;4947100;28;20043;-83
2023/03/30 05:12:37;;;;;;;13.50;4.13;;;11.60;99.90;;;;;;4950839;28;20065;-83
2023/03/30 05:15:03;;;;;;;5.93;2.92;;;11.60;99.90;;;;;;4945830;28;20043;-83
2023/03/30 05:17:32;;;;;;;8.68;3.05;;;11.70;99.90;;;;;;4944365;28;20083;-83
2023/03/30 05:19:58;;;;;;;9.15;3.38;;;11.70;99.90;;;;;;4943882;28;20393;-84
2023/03/30 05:22:24;;;;;;;9.25;3.42;;;11.70;99.90;;;;;;4941601;28;20564;-83
2023/03/30 05:24:53;;;;;;;10.52;3.22;;;11.80;99.90;;;;;;4946562;28;20047;-82
2023/03/30 05:27:18;;;;;;;10.95;2.95;;;11.90;99.90;;;;;;4953858;28;20079;-83
2023/03/30 05:29:44;;;;;;;8.38;3.40;;;11.80;99.90;;;;;;4958393;28;20137;-83
2023/03/30 05:32:10;;;;;;;12.85;3.45;;;11.80;99.90;;;;;;4935111;28;20141;-83
2023/03/30 05:34:36;;;;;;;9.32;3.58;;;11.80;99.90;;;;;;4953938;28;20510;-83
2023/03/30 05:37:02;;;;;;;9.07;3.30;;;11.80;99.90;;;;;;4938050;28;20051;-83
2023/03/30 05:39:27;;;;;;;9.30;3.63;;;11.80;99.90;;;;;;4944037;28;20046;-84
2023/03/30 05:41:53;;;;;;;10.63;3.63;;;11.80;99.90;;;;;;4955159;28;20047;-85
2023/03/30 05:44:19;;;;;;;10.40;3.50;;;11.80;99.90;;;;;;4961547;28;20351;-85
2023/03/30 05:46:45;;;;;;;8.05;3.80;;;11.80;99.90;;;;;;4934640;29;20490;-84
2023/03/30 05:49:10;;;;;;;8.85;3.67;;;11.80;99.90;;;;;;4945490;28;20097;-84
2023/03/30 05:51:36;;;;;;;10.50;3.92;;;11.70;99.90;;;;;;4954060;28;20086;-83
2023/03/30 05:54:02;;;;;;;8.15;3.85;;;11.80;99.90;;;;;;4953906;28;20392;-86
2023/03/30 05:56:28;;;;;;;10.88;4.47;;;11.70;99.90;;;;;;4930429;29;20229;-85
2023/03/30 05:58:54;;;;;;;9.85;3.80;;;11.70;99.90;;;;;;4948282;28;20346;-83
2023/03/30 06:01:20;;;;;;;11.82;3.92;;;11.60;99.90;;;;;;4947599;28;20377;-84
2023/03/30 06:03:46;;;;;;;10.43;3.78;;;11.70;99.90;;;;;;4949154;28;20085;-85
2023/03/30 06:06:12;;;;;;;9.15;4.10;;;11.70;99.90;;;;;;4942841;28;20070;-85
2023/03/30 06:08:39;;;;;;;13.90;4.00;;;11.90;99.90;;;;;;4943428;28;20573;-85
2023/03/30 06:11:05;;;;;;;7.60;3.80;;;11.70;99.90;;;;;;4938166;28;20577;-90
2023/03/30 06:13:31;;;;;;;7.47;3.55;;;11.70;99.90;;;;;;4946207;28;20374;-88
2023/03/30 06:15:57;;;;;;;10.77;3.72;;;11.90;99.90;;;;;;4931640;29;20398;-87
2023/03/30 06:18:23;;;;;;;10.38;3.88;;;11.70;99.90;;;;;;4955406;28;20506;-88
2023/03/30 06:20:50;;;;;;;10.88;3.83;;;11.70;99.90;;;;;;4962233;28;20090;-89
2023/03/30 06:23:16;;;;;;;9.20;3.50;;;11.70;99.90;;;;;;4948273;28;20054;-92
2023/03/30 06:25:46;;;;;;;12.52;4.05;;;11.80;99.90;;;;;;4950371;28;20556;-85
2023/03/30 06:28:11;;;;;;;10.57;3.90;;;11.80;99.90;;;;;;4937908;29;20085;-86
2023/03/30 06:30:38;;;;;;;8.35;3.28;;;11.80;99.90;;;;;;4955500;28;20130;-86
2023/03/30 06:33:04;;;;;;;11.38;4.30;;;11.80;99.90;;;;;;4952078;28;20412;-86
2023/03/30 06:35:30;;;;;;;9.48;3.67;;;11.80;99.90;;;;;;4935823;28;20051;-85
2023/03/30 06:37:56;;;;;;;8.25;4.32;;;11.80;99.90;;;;;;4954402;28;20059;-84
2023/03/30 06:40:22;;;;;;;9.75;4.32;;;11.80;99.90;;;;;;4953049;28;20049;-84
2023/03/30 06:42:47;;;;;;;11.55;4.53;;;11.90;99.90;;;;;;4953762;28;20047;-85
2023/03/30 06:45:13;;;;;;;11.18;4.22;;;11.90;99.90;;;;;;4948432;28;20059;-85
2023/03/30 06:47:40;;;;;;;8.45;3.88;;;12.00;99.90;;;;;;4945573;28;20082;-85
2023/03/30 06:50:06;;;;;;;12.88;4.30;;;12.10;99.90;;;;;;4955134;28;20058;-85
2023/03/30 06:52:38;;;;;;;14.02;4.47;;;12.10;99.90;;;;;;4945350;28;20046;-85
2023/03/30 06:55:04;;;;;;;8.38;3.85;;;12.20;99.90;;;;;;4946734;28;20291;-85
2023/03/30 06:57:31;;;;;;;12.35;3.60;;;12.30;99.90;;;;;;4962020;28;20130;-83
2023/03/30 06:59:56;;;;;;;9.60;3.75;;;12.20;99.90;;;;;;4950755;28;20054;-84
2023/03/30 07:02:22;;;;;;;9.85;3.42;;;12.40;99.90;;;;;;4952319;28;20046;-84
2023/03/30 07:04:49;;;;;;;11.63;4.07;;;12.30;99.90;;;;;;4947344;28;20142;-84
2023/03/30 07:07:14;;;;;;;10.18;3.65;;;12.40;99.90;;;;;;4947129;28;20581;-84
2023/03/30 07:09:40;;;;;;;11.27;3.55;;;12.30;99.90;;;;;;4949337;28;20126;-88
2023/03/30 07:12:06;;;;;;;10.45;3.47;;;12.40;99.90;;;;;;4955339;28;20082;-89
2023/03/30 07:14:32;;;;;;;14.55;3.17;;;12.40;99.90;;;;;;4955896;28;20582;-84
2023/03/30 07:16:58;;;;;;;14.32;3.40;;;12.50;99.90;;;;;;4945729;28;20043;-84
2023/03/30 07:19:23;;;;;;;12.82;3.20;;;12.50;99.90;;;;;;4944500;28;20465;-85
2023/03/30 07:21:49;;;;;;;11.43;3.63;;;12.50;99.90;;;;;;4948209;28;20133;-84
2023/03/30 07:24:15;;;;;;;9.68;2.92;;;12.50;99.90;;;;;;4945146;28;20035;-85
2023/03/30 07:26:41;;;;;;;13.35;3.20;;;12.40;99.90;;;;;;4946927;28;20492;-84
2023/03/30 07:29:06;;;;;;;11.13;3.10;;;12.40;99.90;;;;;;4943270;28;20055;-84
2023/03/30 07:31:32;;;;;;;9.35;2.97;;;12.30;99.90;;;;;;4944408;28;20050;-84
2023/03/30 07:33:58;;;;;;;11.60;2.85;;;12.30;99.90;;;;;;4943992;28;20046;-84
2023/03/30 07:36:24;;;;;;;10.70;2.92;;;12.20;99.90;;;;;;4944102;28;20377;-84
2023/03/30 07:38:50;;;;;;;10.40;3.28;;;12.10;99.90;;;;;;4944482;28;20081;-84
2023/03/30 07:41:17;;;;;;;12.13;4.30;;;12.10;99.90;;;;;;4944463;28;20549;-84
2023/03/30 07:43:43;;;;;;;12.43;3.10;;;12.10;99.90;;;;;;4946685;28;20071;-84
2023/03/30 07:46:13;;;;;;;11.25;3.75;;;12.10;99.90;;;;;;4959078;28;20058;-85
2023/03/30 07:48:39;;;;;;;10.40;3.13;;;12.10;99.90;;;;;;4949406;28;20512;-85
2023/03/30 07:51:11;;;;;;;9.93;4.40;;;12.00;99.90;;;;;;4946038;28;20118;-85
2023/03/30 07:53:37;;;;;;;10.10;3.40;;;12.00;99.90;;;;;;4942917;28;20114;-84
2023/03/30 07:56:03;;;;;;;11.88;4.05;;;12.10;99.90;;;;;;4937034;28;20050;-84
2023/03/30 07:58:30;;;;;;;14.07;3.65;;;12.00;99.90;;;;;;4958044;28;20387;-85
2023/03/30 08:00:56;;;;;;;17.15;2.95;;;12.00;99.90;;;;;;4942368;28;20110;-85
2023/03/30 08:03:23;;;;;;;16.98;4.35;;;12.00;99.90;;;;;;4954555;28;20046;-84
2023/03/30 08:05:53;;;;;;;19.88;3.72;;;12.00;99.90;;;;;;4945472;28;20035;-84
2023/03/30 08:08:19;;;;;;;19.08;4.35;;;12.00;99.90;;;;;;4950456;28;20388;-84
2023/03/30 08:10:45;;;;;;;18.35;4.07;;;11.90;99.90;;;;;;4943182;28;20158;-84
2023/03/30 08:13:11;;;;;;;16.08;3.42;;;11.90;99.90;;;;;;4965505;28;20481;-83
2023/03/30 08:15:38;;;;;;;17.90;4.05;;;11.90;99.90;;;;;;4945610;28;20039;-84
2023/03/30 08:18:06;;;;;;;25.05;4.68;;;11.90;99.90;;;;;;4948255;28;20544;-83
2023/03/30 08:20:36;;;;;;;22.25;3.83;;;11.90;99.90;;;;;;4950409;28;20046;-83
2023/03/30 08:23:06;;;;;;;16.80;3.88;;;11.80;99.90;;;;;;4947793;28;20051;-84
2023/03/30 08:25:32;;;;;;;22.40;4.03;;;11.90;99.90;;;;;;4944822;28;20122;-86
2023/03/30 08:27:58;;;;;;;20.98;4.70;;;11.70;99.90;;;;;;4946186;28;20486;-86
2023/03/30 08:30:24;;;;;;;19.40;4.20;;;11.60;99.90;;;;;;4959390;28;20047;-86
2023/03/30 08:32:51;;;;;;;18.00;3.90;;;11.60;99.90;;;;;;4943535;28;20047;-85
2023/03/30 08:35:18;;;;;;;16.67;3.75;;;11.60;99.90;;;;;;4931454;28;20086;-86
2023/03/30 08:37:44;;;;;;;19.63;3.75;;;11.50;99.90;;;;;;4943119;28;20055;-86
2023/03/30 08:40:14;;;;;;;14.45;3.90;;;11.50;99.90;;;;;;4948059;28;20085;-86
2023/03/30 08:43:05;;;;;;;20.98;4.03;;;11.50;99.90;;;;;;4934909;28;20046;-86
2023/03/30 08:45:38;;;;;;;14.80;3.58;;;11.50;99.90;;;;;;4945757;28;20055;-86
2023/03/30 08:48:25;;;;;;;15.10;3.65;;;11.50;99.90;;;;;;4954311;28;20043;-85
2023/03/30 08:51:00;;;;;;;23.98;4.78;;;11.50;99.90;;;;;;4944142;28;20071;-85
2023/03/30 08:53:31;;;;;;;13.90;3.20;;;11.50;99.90;;;;;;4942069;28;20493;-86
2023/03/30 08:56:22;;;;;;;17.42;3.78;;;11.60;99.90;;;;;;4942375;28;20043;-85
2023/03/30 08:59:29;;;;;;;23.73;3.63;;;11.60;99.90;;;;;;4943090;28;20062;-86
2023/03/30 09:02:11;;;;;;;21.40;4.32;;;11.60;99.90;;;;;;4924164;29;20101;-86
2023/03/30 09:05:00;;;;;;;20.27;3.92;;;11.70;99.90;;;;;;4946337;28;20114;-85
2023/03/30 09:07:45;;;;;;;26.10;4.32;;;11.80;99.90;;;;;;4925208;28;20074;-86
2023/03/30 09:10:13;;;;;;;25.65;3.67;;;11.90;99.90;;;;;;4947562;28;20047;-85
2023/03/30 09:12:49;;;;;;;20.75;4.75;;;12.00;99.90;;;;;;4948922;28;20051;-87
2023/03/30 09:15:15;;;;;;;29.85;4.55;;;12.00;99.90;;;;;;4939767;28;20065;-86
2023/03/30 09:17:59;;;;;;;24.85;3.78;;;12.10;99.90;;;;;;4946061;28;20047;-86
2023/03/30 09:20:29;;;;;;;20.52;4.10;;;12.20;99.90;;;;;;4922884;28;20086;-86
2023/03/30 09:22:59;;;;;;;14.27;2.70;;;12.30;99.90;;;;;;4933738;28;20249;-86
2023/03/30 09:25:57;;;;;;;23.02;3.72;;;12.30;99.90;;;;;;4930575;28;20059;-86
2023/03/30 09:28:30;;;;;;;12.15;3.60;;;12.20;99.90;;;;;;4921235;28;20312;-86
2023/03/30 09:31:07;;;;;;;18.13;3.87;;;12.30;99.90;;;;;;4925267;28;20102;-86
2023/03/30 09:33:50;;;;;;;21.13;4.55;;;12.40;99.90;;;;;;4943379;28;20309;-86
2023/03/30 09:36:21;;;;;;;16.00;3.40;;;12.40;99.90;;;;;;4941349;28;20043;-86
2023/03/30 09:38:49;;;;;;;20.52;3.30;;;12.50;99.90;;;;;;4948773;28;20058;-87
2023/03/30 09:41:34;;;;;;;15.10;2.38;;;12.60;99.90;;;;;;4949641;28;20043;-87
2023/03/30 09:44:03;;;;;;;17.88;3.38;;;12.70;99.90;;;;;;4954810;28;20098;-87
2023/03/30 09:46:28;;;;;;;16.40;3.40;;;12.70;99.90;;;;;;4947524;28;20541;-87
2023/03/30 09:49:11;;;;;;;13.00;3.03;;;12.90;99.90;;;;;;4944791;28;20054;-87
2023/03/30 09:51:52;;;;;;;15.80;3.20;;;12.90;99.90;;;;;;4947007;28;20070;-88
2023/03/30 09:54:20;;;;;;;19.65;3.47;;;12.90;99.90;;;;;;4951369;28;20133;-87
2023/03/30 09:56:50;;;;;;;13.45;2.20;;;12.90;99.90;;;;;;4949164;28;20122;-87
2023/03/30 09:59:22;;;;;;;15.82;2.15;;;12.90;99.90;;;;;;4960588;28;20051;-88
2023/03/30 10:01:47;;;;;;;17.40;3.38;;;12.90;99.90;;;;;;4956217;28;20047;-88
2023/03/30 10:04:15;;;;;;;17.23;2.70;;;12.90;99.90;;;;;;4941498;28;20944;-86
2023/03/30 10:06:48;;;;;;;17.52;3.58;;;12.90;99.90;;;;;;4944396;28;20518;-84
2023/03/30 10:09:20;;;;;;;11.65;2.28;;;12.80;99.90;;;;;;4947910;28;20493;-86
2023/03/30 10:11:51;;;;;;;18.30;3.08;;;12.80;99.90;;;;;;4949658;28;20054;-86
2023/03/30 10:14:32;;;;;;;20.30;3.47;;;12.60;99.90;;;;;;4952116;28;20069;-86
2023/03/30 10:16:59;;;;;;;13.90;2.80;;;12.60;99.90;;;;;;4949371;28;20038;-85
2023/03/30 10:19:25;;;;;;;16.08;2.80;;;12.60;99.90;;;;;;4948579;28;20065;-86
2023/03/30 10:21:56;;;;;;;15.75;2.63;;;12.60;99.90;;;;;;4954379;28;20039;-84
2023/03/30 10:24:28;;;;;;;16.63;2.58;;;12.70;99.90;;;;;;4947585;28;20097;-85
2023/03/30 10:27:12;;;;;;;15.43;2.53;;;12.60;99.90;;;;;;4951204;28;20134;-86
2023/03/30 10:29:43;;;;;;;13.00;2.93;;;12.70;99.90;;;;;;4951874;28;20875;-85
2023/03/30 10:32:17;;;;;;;12.90;2.70;;;12.60;99.90;;;;;;4946595;28;20229;-85
2023/03/30 10:34:44;;;;;;;;;;;12.70;99.90;;;;;;4946277;28;20390;-84
2023/03/30 10:37:23;;;;;;;16.52;2.67;;;12.60;99.90;;;;;;4946833;28;20000;-84
2023/03/30 10:39:51;;;;;;;15.55;2.83;;;12.60;99.90;;;;;;4947551;28;20042;-84
2023/03/30 10:42:20;;;;;;;23.00;3.63;;;12.60;99.90;;;;;;4944716;28;20046;-85
2023/03/30 10:44:54;;;;;;;15.38;2.67;;;12.60;99.90;;;;;;4947818;28;20167;-84
2023/03/30 10:47:45;;;;;;;16.48;3.47;;;12.60;99.90;;;;;;4966107;28;20448;-84
2023/03/30 10:50:17;;;;;;;17.23;3.00;;;12.70;99.90;;;;;;4946735;28;20050;-83
2023/03/30 10:53:05;;;;;;;;;;;12.60;99.90;;;;;;4965604;28;20485;-83
2023/03/30 10:55:47;;;;;;;14.57;3.15;;;12.60;99.90;;;;;;4949541;28;20343;-86
2023/03/30 10:58:34;;;;;;;13.52;2.65;;;12.70;99.90;;;;;;4944506;28;20589;-84
2023/03/30 11:01:23;;;;;;;15.15;3.05;;;12.70;99.90;;;;;;4946840;28;20117;-85
2023/03/30 11:03:56;;;;;;;17.30;3.33;;;12.70;99.90;;;;;;4953356;28;20051;-84
2023/03/30 11:06:39;;;;;;;16.80;3.30;;;12.80;99.90;;;;;;4944941;28;20113;-84
2023/03/30 11:09:13;;;;;;;15.20;3.85;;;12.80;99.90;;;;;;4948468;28;20098;-84
2023/03/30 11:11:54;;;;;;;23.20;3.30;;;12.80;99.90;;;;;;4961759;28;20049;-83
2023/03/30 11:14:52;;;;;;;19.45;3.53;;;12.90;99.90;;;;;;4946110;28;20129;-83
2023/03/30 11:17:47;;;;;;;14.20;2.47;;;12.80;99.90;;;;;;4957061;28;20054;-83
2023/03/30 11:20:27;;;;;;;16.27;3.33;;;12.90;99.90;;;;;;4943126;28;20682;-83
2023/03/30 11:23:05;;;;;;;15.63;2.58;;;13.00;99.90;;;;;;4942938;28;20208;-84
2023/03/30 11:25:58;;;;;;;13.45;2.75;;;13.00;99.90;;;;;;4942280;28;20038;-85
2023/03/30 11:28:46;;;;;;;20.25;4.93;;;13.00;99.90;;;;;;4942550;28;20058;-84
2023/03/30 11:31:34;;;;;;;14.77;3.15;;;13.00;99.90;;;;;;4958100;28;20042;-84
2023/03/30 11:34:14;;;;;;;17.67;3.63;;;13.10;99.90;;;;;;4944468;28;20046;-83
2023/03/30 11:37:16;;;;;;;17.45;2.97;;;13.20;99.90;;;;;;4945052;28;20244;-84
2023/03/30 11:39:49;;;;;;;14.93;3.72;;;13.30;99.90;;;;;;4942700;28;20134;-83
2023/03/30 11:42:31;;;;;;;15.77;3.10;;;13.40;99.90;;;;;;4941955;28;20046;-84
2023/03/30 11:44:57;;;;;;;16.80;3.20;;;13.50;99.90;;;;;;4958181;28;20059;-85
2023/03/30 11:47:55;;;;;;;19.88;3.17;;;13.60;99.90;;;;;;4943339;28;20660;-82
2023/03/30 11:51:06;;;;;;;16.17;3.10;;;13.70;99.90;;;;;;4962547;28;20397;-84
2023/03/30 11:53:51;;;;;;;16.25;3.13;;;13.70;99.90;;;;;;4945541;28;20525;-86
2023/03/30 11:56:34;;;;;;;17.75;3.38;;;13.80;99.90;;;;;;4952714;28;20054;-85
2023/03/30 11:59:24;;;;;;;16.45;3.15;;;13.80;99.90;;;;;;4960142;28;20126;-84
2023/03/30 12:02:09;;;;;;;22.35;3.63;;;13.80;99.90;;;;;;4945692;28;20043;-83
2023/03/30 12:05:03;;;;;;;19.45;3.20;;;13.80;99.90;;;;;;4949972;28;20079;-86
2023/03/30 12:07:52;;;;;;;20.65;3.22;;;13.80;99.90;;;;;;4946434;28;20059;-85
2023/03/30 12:10:35;;;;;;;14.90;2.90;;;13.80;99.90;;;;;;4951506;28;20122;-85
2023/03/30 12:13:01;;;;;;;19.30;3.88;;;13.90;99.90;;;;;;4945050;28;20626;-85
2023/03/30 12:15:54;;;;;;;22.23;4.25;;;14.10;99.90;;;;;;4929980;28;20063;-85
2023/03/30 12:18:41;;;;;;;19.90;3.72;;;14.30;99.90;;;;;;4946377;28;20334;-84
2023/03/30 12:21:27;;;;;;;16.33;3.25;;;14.60;99.90;;;;;;4944291;28;20678;-84
2023/03/30 12:24:00;;;;;;;17.73;3.10;;;14.70;99.90;;;;;;4959560;28;20134;-85
2023/03/30 12:26:33;;;;;;;12.93;2.70;;;14.70;99.90;;;;;;4953655;28;20071;-85
2023/03/30 12:29:16;;;;;;;22.58;3.55;;;14.70;99.90;;;;;;4944424;28;20051;-92
2023/03/30 12:34:46;;;;;;;22.27;3.28;;;14.80;99.90;;;;;;4943892;28;20134;-86
2023/03/30 12:37:17;;;;;;;18.90;4.40;;;14.80;99.90;;;;;;4940797;28;20045;-85
2023/03/30 12:39:58;;;;;;;17.35;3.60;;;15.00;99.90;;;;;;4946757;28;20760;-86
2023/03/30 12:42:34;;;;;;;14.43;3.05;;;15.00;99.90;;;;;;4930853;28;20082;-85
2023/03/30 12:45:21;;;;;;;16.20;3.08;;;15.20;99.90;;;;;;4944313;28;20071;-85
2023/03/30 12:47:56;;;;;;;17.88;3.50;;;15.30;99.90;;;;;;4949064;28;20486;-84
2023/03/30 12:50:40;;;;;;;25.67;4.18;;;15.40;99.90;;;;;;4955791;28;20440;-86
2023/03/30 12:53:25;;;;;;;;;;;15.40;99.90;;;;;;4950302;28;20585;-84
2023/03/30 12:56:12;;;;;;;20.23;3.40;;;15.30;99.90;;;;;;4951354;28;20011;-86
2023/03/30 12:59:05;;;;;;;18.77;3.00;;;15.20;99.90;;;;;;4942284;28;20525;-85
2023/03/30 13:02:17;;;;;;;13.57;2.63;;;15.20;99.90;;;;;;4959505;28;20039;-85
2023/03/30 13:04:47;;;;;;;16.33;3.05;;;15.10;99.90;;;;;;4942670;28;20039;-86
2023/03/30 13:07:22;;;;;;;19.02;3.67;;;15.00;99.90;;;;;;4929426;28;20050;-86